createdAt,value
2023-03-29T00:00:29.312Z,100.00
2023-03-29T00:01:35.371Z,100.00
2023-03-29T00:02:38.020Z,100.00
2023-03-29T00:03:39.800Z,100.00
2023-03-29T00:04:41.490Z,100.00
2023-03-29T00:05:43.221Z,100.00
2023-03-29T00:06:44.799Z,100.00
2023-03-29T00:07:46.916Z,100.00
2023-03-29T00:08:51.104Z,100.00
2023-03-29T00:09:52.715Z,100.00
2023-03-29T00:10:55.999Z,100.00
2023-03-29T00:11:57.705Z,100.00
2023-03-29T00:12:59.540Z,100.00
2023-03-29T00:14:01.106Z,100.00
2023-03-29T00:15:04.317Z,100.00
2023-03-29T00:16:06.494Z,100.00
2023-03-29T00:17:08.119Z,100.00
2023-03-29T00:18:09.802Z,100.00
2023-03-29T00:19:11.448Z,100.00
2023-03-29T00:20:13.054Z,100.00
2023-03-29T00:21:14.619Z,100.00
2023-03-29T00:22:16.480Z,100.00
2023-03-29T00:23:18.053Z,100.00
2023-03-29T00:24:19.828Z,100.00
2023-03-29T00:25:21.418Z,100.00
2023-03-29T00:26:23.276Z,100.00
2023-03-29T00:27:24.880Z,100.00
2023-03-29T00:28:26.594Z,100.00
2023-03-29T00:29:28.797Z,100.00
2023-03-29T00:30:30.379Z,100.00
2023-03-29T00:31:32.013Z,100.00
2023-03-29T00:32:34.152Z,100.00
2023-03-29T00:33:36.038Z,100.00
2023-03-29T00:34:37.643Z,100.00
2023-03-29T00:35:39.775Z,100.00
2023-03-29T00:36:41.370Z,100.00
2023-03-29T00:37:42.961Z,100.00
2023-03-29T00:38:45.373Z,100.00
2023-03-29T00:39:47.056Z,100.00
2023-03-29T00:40:48.642Z,100.00
2023-03-29T00:41:50.642Z,100.00
2023-03-29T00:42:52.403Z,100.00
2023-03-29T00:44:02.685Z,100.00
2023-03-29T00:45:12.486Z,100.00
2023-03-29T00:46:14.083Z,100.00
2023-03-29T00:47:17.731Z,100.00
2023-03-29T00:48:26.233Z,100.00
2023-03-29T00:49:28.037Z,100.00
2023-03-29T00:50:35.642Z,100.00
2023-03-29T00:51:40.086Z,100.00
2023-03-29T00:52:46.928Z,100.00
2023-03-29T00:53:56.204Z,100.00
2023-03-29T00:55:01.966Z,100.00
2023-03-29T00:56:09.915Z,100.00
2023-03-29T00:57:13.723Z,100.00
2023-03-29T00:58:21.228Z,100.00
2023-03-29T00:59:27.390Z,100.00
2023-03-29T01:00:35.103Z,100.00
2023-03-29T01:01:45.102Z,100.00
2023-03-29T01:02:51.862Z,100.00
2023-03-29T01:04:01.476Z,100.00
2023-03-29T01:05:08.504Z,100.00
2023-03-29T01:06:11.246Z,100.00
2023-03-29T01:07:20.573Z,100.00
2023-03-29T01:08:30.005Z,100.00
2023-03-29T01:09:35.198Z,100.00
2023-03-29T01:10:48.749Z,100.00
2023-03-29T01:11:59.440Z,100.00
2023-03-29T01:13:08.445Z,100.00
2023-03-29T01:14:14.303Z,100.00
2023-03-29T01:15:21.098Z,100.00
2023-03-29T01:16:25.257Z,100.00
2023-03-29T01:17:28.228Z,100.00
2023-03-29T01:18:29.826Z,100.00
2023-03-29T01:19:59.655Z,100.00
2023-03-29T01:21:16.313Z,100.00
2023-03-29T01:22:42.837Z,100.00
2023-03-29T01:24:17.645Z,100.00
2023-03-29T01:25:36.355Z,100.00
2023-03-29T01:26:46.654Z,100.00
2023-03-29T01:27:56.785Z,100.00
2023-03-29T01:29:04.452Z,100.00
2023-03-29T01:30:13.084Z,100.00
2023-03-29T01:31:23.066Z,100.00
2023-03-29T01:32:33.226Z,100.00
2023-03-29T01:33:42.401Z,100.00
2023-03-29T01:34:48.812Z,100.00
2023-03-29T01:36:02.130Z,100.00
2023-03-29T01:37:12.541Z,100.00
2023-03-29T01:38:21.433Z,100.00
2023-03-29T01:39:23.012Z,100.00
2023-03-29T01:40:25.227Z,100.00
2023-03-29T01:41:34.249Z,100.00
2023-03-29T01:42:46.583Z,100.00
2023-03-29T01:43:58.611Z,100.00
2023-03-29T01:45:27.698Z,100.00
2023-03-29T01:46:55.561Z,100.00
2023-03-29T01:48:10.970Z,100.00
2023-03-29T01:49:24.198Z,100.00
2023-03-29T01:50:37.853Z,100.00
2023-03-29T01:51:49.115Z,100.00
2023-03-29T01:53:01.946Z,100.00
2023-03-29T01:54:13.651Z,100.00
2023-03-29T01:55:17.914Z,100.00
2023-03-29T01:56:27.020Z,100.00
2023-03-29T01:57:30.100Z,100.00
2023-03-29T01:58:35.219Z,100.00
2023-03-29T01:59:40.407Z,100.00
2023-03-29T02:00:42.951Z,100.00
2023-03-29T02:01:51.940Z,100.00
2023-03-29T02:03:00.374Z,100.00
2023-03-29T02:04:06.619Z,100.00
2023-03-29T02:05:10.354Z,100.00
2023-03-29T02:06:14.742Z,100.00
2023-03-29T02:07:20.306Z,100.00
2023-03-29T02:08:22.384Z,100.00
2023-03-29T02:09:26.150Z,100.00
2023-03-29T02:10:28.339Z,100.00
2023-03-29T02:11:29.922Z,100.00
2023-03-29T02:12:31.646Z,100.00
2023-03-29T02:13:34.220Z,100.00
2023-03-29T02:14:36.336Z,100.00
2023-03-29T02:15:39.939Z,100.00
2023-03-29T02:16:41.611Z,100.00
2023-03-29T02:17:43.236Z,100.00
2023-03-29T02:18:48.168Z,100.00
2023-03-29T02:19:54.890Z,100.00
2023-03-29T02:20:57.742Z,100.00
2023-03-29T02:22:09.279Z,100.00
2023-03-29T02:23:24.411Z,100.00
2023-03-29T02:24:27.251Z,100.00
2023-03-29T02:25:29.446Z,100.00
2023-03-29T02:26:31.185Z,100.00
2023-03-29T02:27:33.317Z,100.00
2023-03-29T02:28:35.813Z,100.00
2023-03-29T02:29:37.394Z,100.00
2023-03-29T02:30:56.567Z,100.00
2023-03-29T02:31:59.692Z,100.00
2023-03-29T02:33:08.924Z,100.00
2023-03-29T02:34:26.323Z,100.00
2023-03-29T02:35:35.048Z,100.00
2023-03-29T02:36:42.409Z,100.00
2023-03-29T02:37:47.508Z,100.00
2023-03-29T02:38:49.682Z,100.00
2023-03-29T02:39:52.422Z,100.00
2023-03-29T02:40:56.215Z,100.00
2023-03-29T02:41:58.868Z,100.00
2023-03-29T02:43:01.971Z,100.00
2023-03-29T02:44:07.347Z,100.00
2023-03-29T02:45:10.935Z,100.00
2023-03-29T02:46:14.689Z,100.00
2023-03-29T02:47:30.671Z,100.00
2023-03-29T02:48:37.566Z,100.00
2023-03-29T02:49:39.332Z,100.00
2023-03-29T02:50:44.896Z,100.00
2023-03-29T02:51:50.904Z,100.00
2023-03-29T02:52:59.700Z,100.00
2023-03-29T02:54:06.127Z,100.00
2023-03-29T02:55:12.110Z,100.00
2023-03-29T02:56:13.892Z,100.00
2023-03-29T02:57:15.701Z,100.00
2023-03-29T02:58:17.376Z,100.00
2023-03-29T02:59:19.243Z,100.00
2023-03-29T03:00:20.893Z,100.00
2023-03-29T03:01:22.653Z,100.00
2023-03-29T03:02:25.202Z,100.00
2023-03-29T03:03:29.045Z,100.00
2023-03-29T03:04:33.135Z,100.00
2023-03-29T03:05:35.745Z,100.00
2023-03-29T03:06:38.137Z,100.00
2023-03-29T03:07:40.414Z,100.00
2023-03-29T03:08:42.230Z,100.00
2023-03-29T03:09:44.202Z,100.00
2023-03-29T03:10:46.066Z,100.00
2023-03-29T03:11:47.659Z,100.00
2023-03-29T03:12:49.530Z,100.00
2023-03-29T03:13:51.257Z,100.00
2023-03-29T03:14:52.814Z,100.00
2023-03-29T03:15:55.214Z,100.00
2023-03-29T03:16:56.909Z,100.00
2023-03-29T03:17:58.693Z,100.00
2023-03-29T03:19:00.311Z,100.00
2023-03-29T03:20:02.430Z,100.00
2023-03-29T03:21:05.006Z,100.00
2023-03-29T03:22:06.710Z,100.00
2023-03-29T03:23:08.630Z,100.00
2023-03-29T03:24:10.379Z,100.00
2023-03-29T03:25:11.986Z,100.00
2023-03-29T03:26:15.108Z,100.00
2023-03-29T03:27:17.907Z,100.00
2023-03-29T03:28:20.448Z,100.00
2023-03-29T03:29:22.181Z,100.00
2023-03-29T03:30:42.282Z,100.00
2023-03-29T03:32:12.901Z,100.00
2023-03-29T03:33:37.319Z,100.00
2023-03-29T03:34:59.445Z,100.00
2023-03-29T03:36:01.694Z,100.00
2023-03-29T03:37:04.521Z,100.00
2023-03-29T03:38:08.938Z,100.00
2023-03-29T03:39:10.921Z,100.00
2023-03-29T03:40:13.003Z,100.00
2023-03-29T03:41:15.214Z,100.00
2023-03-29T03:42:16.810Z,100.00
2023-03-29T03:43:20.042Z,100.00
2023-03-29T03:44:23.085Z,100.00
2023-03-29T03:45:42.429Z,100.00
2023-03-29T03:46:49.925Z,100.00
2023-03-29T03:47:51.639Z,100.00
2023-03-29T03:49:19.232Z,100.00
2023-03-29T03:50:21.268Z,100.00
2023-03-29T03:51:23.465Z,100.00
2023-03-29T03:52:26.096Z,100.00
2023-03-29T03:53:27.997Z,100.00
2023-03-29T03:54:41.560Z,100.00
2023-03-29T03:56:12.267Z,100.00
2023-03-29T03:57:46.180Z,100.00
2023-03-29T03:58:49.988Z,100.00
2023-03-29T03:59:53.401Z,100.00
2023-03-29T04:01:01.378Z,100.00
2023-03-29T04:02:18.742Z,100.00
2023-03-29T04:03:20.949Z,100.00
2023-03-29T04:04:22.894Z,100.00
2023-03-29T04:05:53.564Z,100.00
2023-03-29T04:06:59.051Z,100.00
2023-03-29T04:08:00.639Z,100.00
2023-03-29T04:09:25.319Z,100.00
2023-03-29T04:10:40.136Z,100.00
2023-03-29T04:11:49.547Z,100.00
2023-03-29T04:12:51.143Z,100.00
2023-03-29T04:13:52.746Z,100.00
2023-03-29T04:15:06.312Z,100.00
2023-03-29T04:16:08.238Z,100.00
2023-03-29T04:17:09.828Z,100.00
2023-03-29T04:18:24.986Z,100.00
2023-03-29T04:19:30.954Z,100.00
2023-03-29T04:20:32.718Z,100.00
2023-03-29T04:21:35.238Z,100.00
2023-03-29T04:22:37.518Z,100.00
2023-03-29T04:23:39.137Z,100.00
2023-03-29T04:24:40.889Z,100.00
2023-03-29T04:25:56.131Z,100.00
2023-03-29T04:27:14.684Z,100.00
2023-03-29T04:28:16.287Z,100.00
2023-03-29T04:29:39.164Z,100.00
2023-03-29T04:30:52.151Z,100.00
2023-03-29T04:32:14.145Z,100.00
2023-03-29T04:33:27.403Z,100.00
2023-03-29T04:34:33.993Z,100.00
2023-03-29T04:35:36.284Z,100.00
2023-03-29T04:36:38.143Z,100.00
2023-03-29T04:37:44.874Z,100.00
2023-03-29T04:38:49.239Z,100.00
2023-03-29T04:39:51.849Z,100.00
2023-03-29T04:40:53.659Z,100.00
2023-03-29T04:42:30.778Z,100.00
2023-03-29T04:43:32.364Z,100.00
2023-03-29T04:44:43.435Z,100.00
2023-03-29T04:45:47.264Z,100.00
2023-03-29T04:47:01.762Z,100.00
2023-03-29T04:48:21.842Z,100.00
2023-03-29T04:49:25.922Z,100.00
2023-03-29T04:50:28.395Z,100.00
2023-03-29T04:51:30.091Z,100.00
2023-03-29T04:52:32.587Z,100.00
2023-03-29T04:53:35.246Z,100.00
2023-03-29T04:54:37.109Z,100.00
2023-03-29T04:55:47.207Z,100.00
2023-03-29T04:56:54.310Z,100.00
2023-03-29T04:58:09.240Z,100.00
2023-03-29T04:59:13.870Z,100.00
2023-03-29T05:00:15.848Z,100.00
2023-03-29T05:01:36.263Z,100.00
2023-03-29T05:02:38.023Z,100.00
2023-03-29T05:03:39.663Z,100.00
2023-03-29T05:04:49.625Z,100.00
2023-03-29T05:05:53.268Z,100.00
2023-03-29T05:06:55.778Z,100.00
2023-03-29T05:07:57.425Z,100.00
2023-03-29T05:09:07.846Z,100.00
2023-03-29T05:10:23.606Z,100.00
2023-03-29T05:11:25.194Z,100.00
2023-03-29T05:12:27.367Z,100.00
2023-03-29T05:13:29.660Z,100.00
2023-03-29T05:14:31.270Z,100.00
2023-03-29T05:15:32.919Z,100.00
2023-03-29T05:16:34.712Z,100.00
2023-03-29T05:17:36.599Z,100.00
2023-03-29T05:18:43.231Z,100.00
2023-03-29T05:19:45.512Z,100.00
2023-03-29T05:20:50.494Z,100.00
2023-03-29T05:21:53.457Z,100.00
2023-03-29T05:22:57.836Z,100.00
2023-03-29T05:24:22.217Z,100.00
2023-03-29T05:25:36.343Z,100.00
2023-03-29T05:26:38.564Z,100.00
2023-03-29T05:27:42.386Z,100.00
2023-03-29T05:28:44.986Z,98.74
2023-03-29T05:29:46.824Z,96.19
2023-03-29T05:31:05.086Z,93.21
2023-03-29T05:32:08.718Z,92.85
2023-03-29T05:33:10.811Z,91.55
2023-03-29T05:34:13.473Z,88.60
2023-03-29T05:35:20.833Z,89.36
2023-03-29T05:36:22.503Z,87.09
2023-03-29T05:37:25.243Z,87.12
2023-03-29T05:38:31.847Z,87.22
2023-03-29T05:39:35.793Z,86.22
2023-03-29T05:40:39.468Z,84.29
2023-03-29T05:42:01.065Z,85.08
2023-03-29T05:43:06.115Z,86.72
2023-03-29T05:44:07.757Z,86.83
2023-03-29T05:45:11.108Z,86.34
2023-03-29T05:46:14.402Z,84.71
2023-03-29T05:47:22.926Z,85.60
2023-03-29T05:48:25.817Z,85.72
2023-03-29T05:49:27.513Z,85.01
2023-03-29T05:50:51.662Z,85.07
2023-03-29T05:51:53.729Z,84.65
2023-03-29T05:52:55.432Z,83.99
2023-03-29T05:53:57.981Z,82.55
2023-03-29T05:54:59.883Z,83.57
2023-03-29T05:56:02.311Z,83.15
2023-03-29T05:57:04.997Z,82.71
2023-03-29T05:58:12.448Z,79.70
2023-03-29T05:59:15.073Z,81.58
2023-03-29T06:00:17.954Z,83.39
2023-03-29T06:01:19.665Z,84.84
2023-03-29T06:02:35.307Z,85.45
2023-03-29T06:03:38.651Z,85.02
2023-03-29T06:04:40.828Z,84.56
2023-03-29T06:06:06.762Z,85.00
2023-03-29T06:07:08.744Z,84.40
2023-03-29T06:08:10.467Z,83.93
2023-03-29T06:09:12.685Z,82.64
2023-03-29T06:10:20.588Z,83.64
2023-03-29T06:11:26.703Z,83.30
2023-03-29T06:12:46.656Z,84.13
2023-03-29T06:13:48.406Z,85.18
2023-03-29T06:14:50.458Z,84.77
2023-03-29T06:16:06.828Z,82.77
2023-03-29T06:17:08.965Z,84.62
2023-03-29T06:18:10.733Z,85.11
2023-03-29T06:19:13.013Z,84.92
2023-03-29T06:20:15.670Z,84.93
2023-03-29T06:21:19.975Z,84.57
2023-03-29T06:22:21.726Z,85.01
2023-03-29T06:23:23.615Z,85.08
2023-03-29T06:24:25.405Z,84.88
2023-03-29T06:25:35.935Z,82.65
2023-03-29T06:26:37.568Z,80.89
2023-03-29T06:27:39.201Z,81.27
2023-03-29T06:28:40.854Z,81.55
2023-03-29T06:29:42.968Z,80.41
2023-03-29T06:30:45.622Z,81.01
2023-03-29T06:31:47.485Z,79.80
2023-03-29T06:33:08.988Z,77.61
2023-03-29T06:34:28.952Z,76.80
2023-03-29T06:35:47.782Z,75.35
2023-03-29T06:36:53.288Z,73.66
2023-03-29T06:37:56.117Z,72.78
2023-03-29T06:39:20.621Z,71.42
2023-03-29T06:40:44.809Z,71.36
2023-03-29T06:41:46.492Z,69.91
2023-03-29T06:43:06.923Z,70.24
2023-03-29T06:44:21.283Z,70.00
2023-03-29T06:45:36.838Z,68.80
2023-03-29T06:46:43.528Z,68.16
2023-03-29T06:47:45.322Z,68.11
2023-03-29T06:48:46.921Z,67.86
2023-03-29T06:49:48.611Z,66.41
2023-03-29T06:51:10.446Z,67.94
2023-03-29T06:52:14.229Z,66.70
2023-03-29T06:53:16.742Z,66.79
2023-03-29T06:54:22.154Z,65.86
2023-03-29T06:55:33.201Z,62.79
2023-03-29T06:56:45.304Z,63.22
2023-03-29T06:57:50.081Z,62.72
2023-03-29T06:58:51.888Z,62.87
2023-03-29T07:00:19.423Z,63.17
2023-03-29T07:01:43.478Z,63.20
2023-03-29T07:02:51.536Z,62.54
2023-03-29T07:03:53.206Z,63.95
2023-03-29T07:05:00.594Z,64.49
2023-03-29T07:06:16.473Z,65.82
2023-03-29T07:07:18.292Z,65.55
2023-03-29T07:08:19.903Z,64.39
2023-03-29T07:09:38.849Z,62.95
2023-03-29T07:11:00.801Z,62.80
2023-03-29T07:12:17.880Z,64.13
2023-03-29T07:13:19.624Z,65.80
2023-03-29T07:14:24.862Z,68.37
2023-03-29T07:15:28.456Z,69.73
2023-03-29T07:17:05.247Z,69.65
2023-03-29T07:18:10.073Z,68.82
2023-03-29T07:19:12.316Z,67.86
2023-03-29T07:20:26.314Z,67.48
2023-03-29T07:21:39.815Z,68.77
2023-03-29T07:22:42.652Z,69.18
2023-03-29T07:23:44.294Z,70.96
2023-03-29T07:24:46.306Z,71.39
2023-03-29T07:25:47.923Z,71.97
2023-03-29T07:27:03.245Z,71.50
2023-03-29T07:28:07.391Z,71.95
2023-03-29T07:29:09.013Z,72.08
2023-03-29T07:30:14.312Z,72.55
2023-03-29T07:31:16.956Z,72.41
2023-03-29T07:32:23.973Z,73.16
2023-03-29T07:33:44.544Z,71.62
2023-03-29T07:34:46.330Z,71.95
2023-03-29T07:35:57.458Z,72.31
2023-03-29T07:36:59.303Z,72.21
2023-03-29T07:38:01.067Z,73.29
2023-03-29T07:39:02.962Z,73.67
2023-03-29T07:40:09.282Z,72.10
2023-03-29T07:41:10.832Z,71.01
2023-03-29T07:42:23.030Z,70.94
2023-03-29T07:43:25.179Z,70.30
2023-03-29T07:44:26.806Z,71.37
2023-03-29T07:45:28.957Z,67.98
2023-03-29T07:46:44.079Z,69.71
2023-03-29T07:47:46.814Z,70.16
2023-03-29T07:48:48.743Z,69.50
2023-03-29T07:49:50.439Z,68.09
2023-03-29T07:50:52.549Z,69.09
2023-03-29T07:51:58.873Z,70.77
2023-03-29T07:53:00.731Z,71.38
2023-03-29T07:54:03.693Z,70.01
2023-03-29T07:55:21.819Z,71.25
2023-03-29T07:56:40.267Z,70.10
2023-03-29T07:57:53.022Z,68.75
2023-03-29T07:58:54.663Z,68.90
2023-03-29T07:59:56.310Z,67.85
2023-03-29T08:01:02.083Z,69.95
2023-03-29T08:02:23.910Z,69.20
2023-03-29T08:03:27.398Z,69.96
2023-03-29T08:04:29.185Z,69.21
2023-03-29T08:05:49.337Z,69.30
2023-03-29T08:06:51.418Z,69.47
2023-03-29T08:07:55.249Z,69.09
2023-03-29T08:08:59.789Z,70.34
2023-03-29T08:10:01.510Z,70.25
2023-03-29T08:11:23.370Z,70.93
2023-03-29T08:12:34.473Z,69.79
2023-03-29T08:13:37.054Z,69.40
2023-03-29T08:15:09.006Z,68.89
2023-03-29T08:16:12.021Z,68.77
2023-03-29T08:17:19.953Z,68.41
2023-03-29T08:18:24.109Z,68.04
2023-03-29T08:19:25.826Z,67.63
2023-03-29T08:20:36.403Z,65.74
2023-03-29T08:21:39.474Z,66.06
2023-03-29T08:22:41.954Z,67.21
2023-03-29T08:24:02.436Z,66.38
2023-03-29T08:25:16.251Z,67.40
2023-03-29T08:26:21.837Z,68.00
2023-03-29T08:27:25.106Z,67.16
2023-03-29T08:28:27.146Z,64.71
2023-03-29T08:29:29.307Z,66.60
2023-03-29T08:30:30.976Z,65.67
2023-03-29T08:31:33.523Z,65.49
2023-03-29T08:32:36.611Z,65.08
2023-03-29T08:33:38.853Z,64.53
2023-03-29T08:35:07.537Z,66.12
2023-03-29T08:36:13.447Z,66.01
2023-03-29T08:37:15.436Z,66.34
2023-03-29T08:38:23.083Z,65.28
2023-03-29T08:39:31.334Z,65.72
2023-03-29T08:40:58.410Z,66.30
2023-03-29T08:42:25.500Z,65.04
2023-03-29T08:43:52.274Z,64.24
2023-03-29T08:45:13.471Z,63.77
2023-03-29T08:46:35.338Z,65.17
2023-03-29T08:48:20.588Z,62.70
2023-03-29T08:49:23.115Z,60.21
2023-03-29T08:50:44.139Z,59.65
2023-03-29T08:51:50.290Z,61.19
2023-03-29T08:52:59.286Z,60.44
2023-03-29T08:54:40.212Z,61.36
2023-03-29T08:56:08.419Z,62.46
2023-03-29T08:57:32.216Z,62.82
2023-03-29T08:58:42.290Z,60.64
2023-03-29T08:59:45.387Z,60.64
2023-03-29T09:00:52.999Z,59.77
2023-03-29T09:01:58.134Z,60.23
2023-03-29T09:15:23.551Z,60.45
2023-03-29T09:16:38.030Z,58.33
2023-03-29T09:17:52.499Z,58.71
2023-03-29T09:19:28.278Z,59.98
2023-03-29T09:20:39.283Z,60.65
2023-03-29T09:27:17.558Z,54.37
2023-03-29T09:29:06.539Z,55.10
2023-03-29T09:30:47.464Z,55.46
2023-03-29T09:31:49.687Z,56.86
2023-03-29T09:33:12.443Z,55.21
2023-03-29T09:34:43.704Z,55.83
2023-03-29T09:45:24.813Z,57.10
2023-03-29T09:46:41.825Z,54.72
2023-03-29T09:57:02.696Z,55.28
2023-03-29T09:59:27.943Z,56.45
2023-03-29T10:00:29.805Z,56.16
2023-03-29T10:01:40.345Z,54.83
2023-03-29T10:02:50.837Z,56.84
2023-03-29T10:03:53.601Z,56.83
2023-03-29T10:04:56.923Z,56.19
2023-03-29T10:06:00.689Z,56.92
2023-03-29T10:07:03.863Z,58.22
2023-03-29T10:08:29.773Z,55.41
2023-03-29T10:09:34.047Z,58.35
2023-03-29T10:10:48.596Z,60.52
2023-03-29T10:11:54.727Z,57.85
2023-03-29T10:13:07.275Z,56.67
2023-03-29T10:14:34.995Z,56.95
2023-03-29T10:15:36.935Z,54.08
2023-03-29T10:16:41.924Z,53.40
2023-03-29T10:17:43.910Z,53.68
2023-03-29T10:18:45.540Z,53.83
2023-03-29T10:21:04.783Z,53.96
2023-03-29T10:22:38.395Z,54.24
2023-03-29T10:24:05.773Z,55.84
2023-03-29T10:25:15.785Z,54.79
2023-03-29T10:29:07.636Z,53.08
2023-03-29T10:30:12.917Z,52.34
2023-03-29T10:34:10.753Z,53.23
2023-03-29T10:35:24.041Z,54.83
2023-03-29T10:36:27.116Z,54.87
2023-03-29T10:37:31.435Z,53.60
2023-03-29T10:38:36.267Z,55.56
2023-03-29T10:39:39.656Z,56.57
2023-03-29T10:40:52.672Z,55.32
2023-03-29T10:41:54.799Z,54.51
2023-03-29T10:45:39.706Z,52.38
2023-03-29T10:46:43.392Z,53.62
2023-03-29T10:47:45.460Z,53.40
2023-03-29T10:48:49.862Z,54.28
2023-03-29T10:49:57.394Z,53.77
2023-03-29T10:51:02.054Z,54.74
2023-03-29T10:52:07.337Z,55.76
2023-03-29T10:53:35.598Z,53.71
2023-03-29T10:54:37.299Z,53.70
2023-03-29T10:56:03.712Z,57.27
2023-03-29T10:58:42.603Z,56.00
2023-03-29T10:59:52.863Z,55.02
2023-03-29T11:00:58.196Z,55.42
2023-03-29T11:02:08.775Z,55.94
2023-03-29T11:03:21.462Z,55.21
2023-03-29T11:04:45.211Z,56.33
2023-03-29T11:06:10.563Z,55.02
2023-03-29T11:07:33.487Z,56.35
2023-03-29T11:09:13.412Z,57.11
2023-03-29T11:10:26.844Z,56.48
2023-03-29T11:11:47.042Z,53.62
2023-03-29T11:13:03.704Z,55.19
2023-03-29T11:14:21.937Z,54.61
2023-03-29T11:15:41.844Z,54.83
2023-03-29T11:17:12.750Z,56.82
2023-03-29T11:18:51.730Z,55.79
2023-03-29T11:20:19.201Z,55.74
2023-03-29T11:21:59.087Z,55.68
2023-03-29T11:23:03.439Z,56.11
2023-03-29T11:24:23.728Z,55.99
2023-03-29T11:25:39.620Z,56.42
2023-03-29T11:26:56.285Z,55.14
2023-03-29T11:28:30.242Z,56.56
2023-03-29T11:29:38.936Z,57.41
2023-03-29T11:30:43.513Z,57.90
2023-03-29T11:32:05.118Z,55.10
2023-03-29T11:33:40.470Z,56.16
2023-03-29T11:34:57.320Z,55.95
2023-03-29T11:36:11.128Z,55.66
2023-03-29T11:37:20.433Z,56.59
2023-03-29T11:39:06.338Z,54.89
2023-03-29T11:40:44.876Z,53.91
2023-03-29T11:41:50.750Z,54.88
2023-03-29T11:42:55.193Z,52.69
2023-03-29T11:44:30.314Z,53.30
2023-03-29T11:45:53.869Z,54.20
2023-03-29T11:47:06.694Z,55.66
2023-03-29T11:48:18.662Z,56.00
2023-03-29T11:49:28.634Z,55.02
2023-03-29T11:50:43.226Z,56.60
2023-03-29T11:52:03.169Z,57.08
2023-03-29T11:53:16.834Z,53.92
2023-03-29T11:54:25.308Z,54.06
2023-03-29T11:55:33.301Z,51.96
2023-03-29T11:56:47.158Z,52.19
2023-03-29T11:57:56.016Z,52.51
2023-03-29T11:59:03.945Z,52.13
2023-03-29T12:00:11.734Z,52.37
2023-03-29T12:01:35.169Z,54.43
2023-03-29T12:02:46.011Z,53.39
2023-03-29T12:03:55.560Z,54.29
2023-03-29T12:05:01.064Z,54.42
2023-03-29T12:06:18.331Z,53.73
2023-03-29T12:07:29.082Z,54.37
2023-03-29T12:08:35.098Z,54.00
2023-03-29T12:09:39.204Z,54.60
2023-03-29T12:10:46.492Z,56.82
2023-03-29T12:12:18.077Z,58.35
2023-03-29T12:13:32.254Z,57.15
2023-03-29T12:14:47.226Z,57.30
2023-03-29T12:15:55.252Z,57.08
2023-03-29T12:17:05.740Z,56.85
2023-03-29T12:18:19.962Z,56.81
2023-03-29T12:19:45.220Z,53.51
2023-03-29T12:20:52.655Z,54.58
2023-03-29T12:21:56.930Z,52.96
2023-03-29T12:22:59.245Z,54.13
2023-03-29T12:24:01.024Z,53.12
2023-03-29T12:25:05.203Z,51.83
2023-03-29T12:26:38.026Z,52.77
2023-03-29T12:28:01.522Z,56.15
2023-03-29T12:29:11.960Z,57.82
2023-03-29T12:30:25.900Z,55.83
2023-03-29T12:31:30.348Z,55.90
2023-03-29T12:32:51.612Z,55.73
2023-03-29T12:40:25.199Z,56.92
2023-03-29T12:41:46.757Z,57.46
2023-03-29T12:42:53.876Z,56.93
2023-03-29T12:44:15.007Z,57.50
2023-03-29T12:45:42.415Z,55.25
2023-03-29T12:46:44.370Z,54.67
2023-03-29T12:47:47.703Z,54.85
2023-03-29T12:48:53.024Z,56.95
2023-03-29T12:49:57.363Z,54.70
2023-03-29T12:51:02.063Z,55.84
2023-03-29T12:52:31.380Z,57.34
2023-03-29T12:53:40.317Z,57.94
2023-03-29T12:54:56.713Z,58.75
2023-03-29T12:56:01.152Z,59.53
2023-03-29T12:57:21.632Z,56.02
2023-03-29T12:58:25.895Z,57.16
2023-03-29T12:59:44.049Z,55.50
2023-03-29T13:00:47.222Z,57.23
2023-03-29T13:02:14.998Z,57.42
2023-03-29T13:03:39.755Z,55.05
2023-03-29T13:04:43.864Z,55.59
2023-03-29T13:05:46.144Z,55.41
2023-03-29T13:06:56.183Z,57.66
2023-03-29T13:07:57.765Z,57.49
2023-03-29T13:09:21.022Z,56.17
2023-03-29T13:10:41.306Z,56.59
2023-03-29T13:11:43.051Z,55.34
2023-03-29T13:12:45.469Z,56.21
2023-03-29T13:13:50.604Z,54.70
2023-03-29T13:15:00.795Z,55.65
2023-03-29T13:16:29.042Z,54.70
2023-03-29T13:17:55.114Z,54.95
2023-03-29T13:18:56.627Z,53.92
2023-03-29T13:20:19.675Z,55.04
2023-03-29T13:21:40.869Z,55.16
2023-03-29T13:22:56.386Z,54.91
2023-03-29T13:24:22.985Z,56.05
2023-03-29T13:25:39.338Z,57.31
2023-03-29T13:26:53.026Z,58.35
2023-03-29T13:28:11.412Z,56.53
2023-03-29T13:29:27.140Z,57.41
2023-03-29T13:30:44.281Z,54.23
2023-03-29T13:32:03.351Z,54.54
2023-03-29T13:33:11.773Z,53.54
2023-03-29T13:34:44.423Z,53.70
2023-03-29T13:36:15.579Z,56.38
2023-03-29T13:37:23.033Z,56.07
2023-03-29T13:38:28.280Z,56.87
2023-03-29T13:39:33.370Z,56.23
2023-03-29T13:40:41.067Z,54.95
2023-03-29T13:41:42.521Z,55.37
2023-03-29T13:42:56.018Z,54.88
2023-03-29T13:43:58.088Z,57.01
2023-03-29T13:45:12.790Z,56.01
2023-03-29T13:46:37.578Z,53.96
2023-03-29T13:47:54.850Z,54.87
2023-03-29T13:49:22.013Z,57.00
2023-03-29T13:50:35.479Z,57.34
2023-03-29T13:51:42.751Z,55.68
2023-03-29T13:53:07.878Z,53.81
2023-03-29T13:54:14.637Z,54.32
2023-03-29T13:55:25.008Z,55.17
2023-03-29T13:56:53.355Z,52.99
2023-03-29T13:58:06.689Z,53.18
2023-03-29T13:59:23.965Z,52.43
2023-03-29T14:00:32.150Z,52.95
2023-03-29T14:01:43.627Z,52.56
2023-03-29T14:02:59.061Z,54.76
2023-03-29T14:04:02.638Z,53.35
2023-03-29T14:05:07.967Z,53.51
2023-03-29T14:06:13.257Z,55.69
2023-03-29T14:07:15.348Z,53.93
2023-03-29T14:08:23.389Z,55.64
2023-03-29T14:09:33.257Z,56.34
2023-03-29T14:10:41.926Z,56.21
2023-03-29T14:11:46.393Z,56.04
2023-03-29T14:12:48.631Z,54.98
2023-03-29T14:13:58.323Z,55.39
2023-03-29T14:15:03.240Z,52.58
2023-03-29T14:16:09.344Z,51.89
2023-03-29T14:17:21.036Z,52.12
2023-03-29T14:18:23.637Z,51.75
2023-03-29T14:19:31.348Z,52.13
2023-03-29T14:20:33.362Z,52.92
2023-03-29T14:21:34.916Z,53.59
2023-03-29T14:22:37.459Z,54.40
2023-03-29T14:23:39.706Z,53.82
2023-03-29T14:24:52.851Z,53.31
2023-03-29T14:25:54.391Z,55.80
2023-03-29T14:26:56.318Z,55.37
2023-03-29T14:27:57.883Z,55.24
2023-03-29T14:29:01.106Z,53.39
2023-03-29T14:30:16.632Z,54.42
2023-03-29T14:31:23.691Z,55.98
2023-03-29T14:32:30.464Z,57.17
2023-03-29T14:33:33.202Z,55.74
2023-03-29T14:34:34.770Z,54.27
2023-03-29T14:35:36.498Z,54.63
2023-03-29T14:36:39.057Z,54.98
2023-03-29T14:37:42.773Z,53.90
2023-03-29T14:38:52.036Z,52.88
2023-03-29T14:39:54.694Z,52.44
2023-03-29T14:41:01.737Z,53.78
2023-03-29T14:42:03.693Z,53.20
2023-03-29T14:43:07.613Z,53.80
2023-03-29T14:44:09.312Z,53.95
2023-03-29T14:45:13.355Z,52.80
2023-03-29T14:46:20.304Z,53.91
2023-03-29T14:47:30.493Z,52.71
2023-03-29T14:48:32.553Z,53.58
2023-03-29T14:49:34.196Z,55.89
2023-03-29T14:50:35.953Z,56.60
2023-03-29T14:51:37.690Z,56.88
2023-03-29T14:52:40.203Z,57.00
2023-03-29T14:53:42.285Z,57.42
2023-03-29T14:54:46.987Z,55.00
2023-03-29T14:55:51.108Z,55.67
2023-03-29T14:56:53.752Z,55.42
2023-03-29T14:57:56.172Z,56.01
2023-03-29T14:58:57.811Z,55.82
2023-03-29T15:00:01.527Z,55.83
2023-03-29T15:01:14.037Z,55.23
2023-03-29T15:02:24.551Z,55.62
2023-03-29T15:03:26.322Z,57.05
2023-03-29T15:04:35.182Z,55.54
2023-03-29T15:05:40.051Z,54.57
2023-03-29T15:06:43.232Z,54.58
2023-03-29T15:07:44.943Z,55.37
2023-03-29T15:08:58.056Z,54.29
2023-03-29T15:10:06.122Z,55.55
2023-03-29T15:11:19.232Z,55.24
2023-03-29T15:12:20.935Z,55.57
2023-03-29T15:13:24.562Z,56.89
2023-03-29T15:14:29.996Z,57.79
2023-03-29T15:15:37.798Z,57.44
2023-03-29T15:16:42.246Z,57.83
2023-03-29T15:17:51.022Z,57.01
2023-03-29T15:18:53.209Z,56.64
2023-03-29T15:20:04.339Z,56.73
2023-03-29T15:21:10.835Z,57.71
2023-03-29T15:22:12.482Z,56.45
2023-03-29T15:23:16.897Z,58.37
2023-03-29T15:24:27.771Z,58.67
2023-03-29T15:25:37.419Z,59.84
2023-03-29T15:26:39.015Z,60.37
2023-03-29T15:27:41.504Z,57.57
2023-03-29T15:28:54.727Z,57.67
2023-03-29T15:30:01.070Z,59.30
2023-03-29T15:31:10.015Z,61.90